sensor_id;sensor_type;location;lat;lon;timestamp;temperature;humidity
45785;DHT22;31489;51.404;5.474;2022-10-20T00:00:26;15.40;63.80
45785;DHT22;31489;51.404;5.474;2022-10-20T00:02:51;15.40;63.90
45785;DHT22;31489;51.404;5.474;2022-10-20T00:05:17;15.40;63.90
45785;DHT22;31489;51.404;5.474;2022-10-20T00:07:43;15.40;64.10
45785;DHT22;31489;51.404;5.474;2022-10-20T00:10:09;15.30;64.10
45785;DHT22;31489;51.404;5.474;2022-10-20T00:12:35;15.30;64.10
45785;DHT22;31489;51.404;5.474;2022-10-20T00:15:01;15.30;64.20
45785;DHT22;31489;51.404;5.474;2022-10-20T00:17:26;15.30;64.30
45785;DHT22;31489;51.404;5.474;2022-10-20T00:19:52;15.30;64.30
45785;DHT22;31489;51.404;5.474;2022-10-20T00:22:18;15.20;64.30
45785;DHT22;31489;51.404;5.474;2022-10-20T00:24:44;15.20;64.40
45785;DHT22;31489;51.404;5.474;2022-10-20T00:27:09;15.20;64.50
45785;DHT22;31489;51.404;5.474;2022-10-20T00:29:35;15.20;64.50
45785;DHT22;31489;51.404;5.474;2022-10-20T00:32:01;15.20;64.60
45785;DHT22;31489;51.404;5.474;2022-10-20T00:34:27;15.20;64.70
45785;DHT22;31489;51.404;5.474;2022-10-20T00:36:52;15.20;64.80
45785;DHT22;31489;51.404;5.474;2022-10-20T00:39:18;15.20;65.00
45785;DHT22;31489;51.404;5.474;2022-10-20T00:41:44;15.20;65.10
45785;DHT22;31489;51.404;5.474;2022-10-20T00:53:01;15.10;65.90
45785;DHT22;31489;51.404;5.474;2022-10-20T00:55:32;15.10;65.70
45785;DHT22;31489;51.404;5.474;2022-10-20T00:58:00;15.10;66.00
45785;DHT22;31489;51.404;5.474;2022-10-20T01:00:27;15.10;66.10
45785;DHT22;31489;51.404;5.474;2022-10-20T01:02:55;15.10;66.20
45785;DHT22;31489;51.404;5.474;2022-10-20T01:05:23;15.10;66.50
45785;DHT22;31489;51.404;5.474;2022-10-20T01:07:49;15.10;66.40
45785;DHT22;31489;51.404;5.474;2022-10-20T01:10:15;15.10;66.50
45785;DHT22;31489;51.404;5.474;2022-10-20T01:16:00;15.10;66.90
45785;DHT22;31489;51.404;5.474;2022-10-20T01:18:49;15.10;66.80
45785;DHT22;31489;51.404;5.474;2022-10-20T01:21:28;15.10;66.80
45785;DHT22;31489;51.404;5.474;2022-10-20T01:26:41;15.10;67.10
45785;DHT22;31489;51.404;5.474;2022-10-20T01:29:26;15.10;66.70
45785;DHT22;31489;51.404;5.474;2022-10-20T01:32:17;15.10;67.40
45785;DHT22;31489;51.404;5.474;2022-10-20T01:37:39;15.10;66.90
45785;DHT22;31489;51.404;5.474;2022-10-20T01:40:21;15.10;67.70
45785;DHT22;31489;51.404;5.474;2022-10-20T01:42:49;15.10;67.50
45785;DHT22;31489;51.404;5.474;2022-10-20T01:45:17;15.10;67.40
45785;DHT22;31489;51.404;5.474;2022-10-20T01:47:44;15.10;67.50
45785;DHT22;31489;51.404;5.474;2022-10-20T01:50:13;15.10;67.40
45785;DHT22;31489;51.404;5.474;2022-10-20T01:52:40;15.10;67.50
45785;DHT22;31489;51.404;5.474;2022-10-20T01:55:13;15.10;67.50
45785;DHT22;31489;51.404;5.474;2022-10-20T02:00:21;15.10;68.40
45785;DHT22;31489;51.404;5.474;2022-10-20T02:08:22;15.10;67.70
45785;DHT22;31489;51.404;5.474;2022-10-20T02:10:53;15.10;67.10
45785;DHT22;31489;51.404;5.474;2022-10-20T02:13:20;15.10;67.30
45785;DHT22;31489;51.404;5.474;2022-10-20T02:15:51;15.10;67.20
45785;DHT22;31489;51.404;5.474;2022-10-20T02:18:25;15.10;67.50
45785;DHT22;31489;51.404;5.474;2022-10-20T02:20:53;15.10;67.30
45785;DHT22;31489;51.404;5.474;2022-10-20T02:23:20;15.10;67.20
45785;DHT22;31489;51.404;5.474;2022-10-20T02:25:48;15.10;67.10
45785;DHT22;31489;51.404;5.474;2022-10-20T02:28:16;15.10;67.30
45785;DHT22;31489;51.404;5.474;2022-10-20T02:30:43;15.00;67.20
45785;DHT22;31489;51.404;5.474;2022-10-20T02:33:10;15.00;67.30
45785;DHT22;31489;51.404;5.474;2022-10-20T02:35:36;15.00;67.30
45785;DHT22;31489;51.404;5.474;2022-10-20T02:38:02;15.00;67.40
45785;DHT22;31489;51.404;5.474;2022-10-20T02:40:29;15.00;67.50
45785;DHT22;31489;51.404;5.474;2022-10-20T02:42:55;15.00;67.60
45785;DHT22;31489;51.404;5.474;2022-10-20T02:45:20;15.00;67.60
45785;DHT22;31489;51.404;5.474;2022-10-20T02:47:46;15.00;67.80
45785;DHT22;31489;51.404;5.474;2022-10-20T02:50:11;15.00;67.80
45785;DHT22;31489;51.404;5.474;2022-10-20T02:52:37;15.00;68.10
45785;DHT22;31489;51.404;5.474;2022-10-20T02:55:04;15.00;68.20
45785;DHT22;31489;51.404;5.474;2022-10-20T02:57:30;15.00;68.40
45785;DHT22;31489;51.404;5.474;2022-10-20T02:59:56;15.00;68.40
45785;DHT22;31489;51.404;5.474;2022-10-20T03:02:21;15.00;68.50
45785;DHT22;31489;51.404;5.474;2022-10-20T03:04:47;15.10;68.80
45785;DHT22;31489;51.404;5.474;2022-10-20T03:07:13;15.00;68.80
45785;DHT22;31489;51.404;5.474;2022-10-20T03:09:39;15.10;68.90
45785;DHT22;31489;51.404;5.474;2022-10-20T03:12:05;15.10;69.00
45785;DHT22;31489;51.404;5.474;2022-10-20T03:14:30;15.10;69.10
45785;DHT22;31489;51.404;5.474;2022-10-20T03:16:56;15.10;69.10
45785;DHT22;31489;51.404;5.474;2022-10-20T03:19:22;15.10;69.10
45785;DHT22;31489;51.404;5.474;2022-10-20T03:21:48;15.10;69.20
45785;DHT22;31489;51.404;5.474;2022-10-20T03:24:14;15.20;69.40
45785;DHT22;31489;51.404;5.474;2022-10-20T03:26:40;15.10;69.50
45785;DHT22;31489;51.404;5.474;2022-10-20T03:29:06;15.10;69.50
45785;DHT22;31489;51.404;5.474;2022-10-20T03:31:32;15.10;69.60
45785;DHT22;31489;51.404;5.474;2022-10-20T03:33:57;15.20;69.70
45785;DHT22;31489;51.404;5.474;2022-10-20T03:36:23;15.20;69.70
45785;DHT22;31489;51.404;5.474;2022-10-20T03:38:49;15.20;69.70
45785;DHT22;31489;51.404;5.474;2022-10-20T03:41:14;15.20;69.70
45785;DHT22;31489;51.404;5.474;2022-10-20T03:43:40;15.20;69.70
45785;DHT22;31489;51.404;5.474;2022-10-20T03:46:08;15.20;69.80
45785;DHT22;31489;51.404;5.474;2022-10-20T03:48:35;15.20;69.70
45785;DHT22;31489;51.404;5.474;2022-10-20T03:51:02;15.20;69.60
45785;DHT22;31489;51.404;5.474;2022-10-20T03:53:28;15.20;69.70
45785;DHT22;31489;51.404;5.474;2022-10-20T03:55:54;15.20;70.40
45785;DHT22;31489;51.404;5.474;2022-10-20T03:58:19;15.30;69.90
45785;DHT22;31489;51.404;5.474;2022-10-20T04:00:46;15.20;70.40
45785;DHT22;31489;51.404;5.474;2022-10-20T04:03:12;15.30;69.80
45785;DHT22;31489;51.404;5.474;2022-10-20T04:05:39;15.30;69.90
45785;DHT22;31489;51.404;5.474;2022-10-20T04:08:05;15.20;69.90
45785;DHT22;31489;51.404;5.474;2022-10-20T04:10:31;15.30;70.00
45785;DHT22;31489;51.404;5.474;2022-10-20T04:12:57;15.30;70.60
45785;DHT22;31489;51.404;5.474;2022-10-20T04:15:23;15.30;70.00
45785;DHT22;31489;51.404;5.474;2022-10-20T04:18:01;15.30;70.10
45785;DHT22;31489;51.404;5.474;2022-10-20T04:20:27;15.30;70.10
45785;DHT22;31489;51.404;5.474;2022-10-20T04:22:53;15.30;70.10
45785;DHT22;31489;51.404;5.474;2022-10-20T04:25:19;15.30;70.10
45785;DHT22;31489;51.404;5.474;2022-10-20T04:27:44;15.30;70.20
45785;DHT22;31489;51.404;5.474;2022-10-20T04:30:10;15.30;70.20
45785;DHT22;31489;51.404;5.474;2022-10-20T04:32:36;15.40;70.30
45785;DHT22;31489;51.404;5.474;2022-10-20T04:35:02;15.30;70.40
45785;DHT22;31489;51.404;5.474;2022-10-20T04:37:28;15.40;70.30
45785;DHT22;31489;51.404;5.474;2022-10-20T04:39:53;15.30;70.40
45785;DHT22;31489;51.404;5.474;2022-10-20T04:42:22;15.40;70.60
45785;DHT22;31489;51.404;5.474;2022-10-20T04:44:48;15.40;70.70
45785;DHT22;31489;51.404;5.474;2022-10-20T04:47:13;15.40;70.80
45785;DHT22;31489;51.404;5.474;2022-10-20T04:49:39;15.40;70.80
45785;DHT22;31489;51.404;5.474;2022-10-20T04:52:05;15.40;70.80
45785;DHT22;31489;51.404;5.474;2022-10-20T04:54:31;15.40;70.70
45785;DHT22;31489;51.404;5.474;2022-10-20T04:56:56;15.40;70.90
45785;DHT22;31489;51.404;5.474;2022-10-20T04:59:22;15.40;70.90
45785;DHT22;31489;51.404;5.474;2022-10-20T05:01:48;15.40;70.90
45785;DHT22;31489;51.404;5.474;2022-10-20T05:04:13;15.40;70.90
45785;DHT22;31489;51.404;5.474;2022-10-20T05:06:46;15.40;71.00
45785;DHT22;31489;51.404;5.474;2022-10-20T05:09:12;15.40;71.00
45785;DHT22;31489;51.404;5.474;2022-10-20T05:11:39;15.40;71.10
45785;DHT22;31489;51.404;5.474;2022-10-20T05:14:04;15.50;71.20
45785;DHT22;31489;51.404;5.474;2022-10-20T05:16:30;15.40;71.10
45785;DHT22;31489;51.404;5.474;2022-10-20T05:18:56;15.50;71.10
45785;DHT22;31489;51.404;5.474;2022-10-20T05:21:27;15.50;70.90
45785;DHT22;31489;51.404;5.474;2022-10-20T05:23:55;15.40;71.20
45785;DHT22;31489;51.404;5.474;2022-10-20T05:26:22;15.40;71.20
45785;DHT22;31489;51.404;5.474;2022-10-20T05:28:49;15.50;71.10
45785;DHT22;31489;51.404;5.474;2022-10-20T05:31:16;15.50;71.20
45785;DHT22;31489;51.404;5.474;2022-10-20T05:33:44;15.50;71.30
45785;DHT22;31489;51.404;5.474;2022-10-20T05:36:13;15.50;71.30
45785;DHT22;31489;51.404;5.474;2022-10-20T05:38:39;15.50;71.30
45785;DHT22;31489;51.404;5.474;2022-10-20T05:41:16;15.50;71.20
45785;DHT22;31489;51.404;5.474;2022-10-20T05:43:49;15.50;71.50
45785;DHT22;31489;51.404;5.474;2022-10-20T05:46:16;15.50;71.40
45785;DHT22;31489;51.404;5.474;2022-10-20T05:48:43;15.50;71.30
45785;DHT22;31489;51.404;5.474;2022-10-20T05:51:15;15.40;71.20
45785;DHT22;31489;51.404;5.474;2022-10-20T05:53:42;15.40;71.40
45785;DHT22;31489;51.404;5.474;2022-10-20T05:56:11;15.50;71.30
45785;DHT22;31489;51.404;5.474;2022-10-20T05:58:38;15.40;71.20
45785;DHT22;31489;51.404;5.474;2022-10-20T06:06:18;15.40;71.30
45785;DHT22;31489;51.404;5.474;2022-10-20T06:08:45;15.40;71.10
45785;DHT22;31489;51.404;5.474;2022-10-20T06:11:12;15.40;71.10
45785;DHT22;31489;51.404;5.474;2022-10-20T06:13:39;15.50;71.20
45785;DHT22;31489;51.404;5.474;2022-10-20T06:16:14;15.50;71.80
45785;DHT22;31489;51.404;5.474;2022-10-20T06:18:40;15.40;71.40
45785;DHT22;31489;51.404;5.474;2022-10-20T06:21:19;15.50;71.20
45785;DHT22;31489;51.404;5.474;2022-10-20T06:23:45;15.50;71.80
45785;DHT22;31489;51.404;5.474;2022-10-20T06:26:14;15.50;71.40
45785;DHT22;31489;51.404;5.474;2022-10-20T06:28:45;15.50;71.50
45785;DHT22;31489;51.404;5.474;2022-10-20T06:31:15;15.40;71.50
45785;DHT22;31489;51.404;5.474;2022-10-20T06:33:41;15.50;71.60
45785;DHT22;31489;51.404;5.474;2022-10-20T06:36:07;15.50;71.70
45785;DHT22;31489;51.404;5.474;2022-10-20T06:38:34;15.40;71.70
45785;DHT22;31489;51.404;5.474;2022-10-20T06:41:01;15.50;71.80
45785;DHT22;31489;51.404;5.474;2022-10-20T06:43:27;15.50;71.90
45785;DHT22;31489;51.404;5.474;2022-10-20T06:45:58;15.50;71.80
45785;DHT22;31489;51.404;5.474;2022-10-20T06:48:25;15.50;72.10
45785;DHT22;31489;51.404;5.474;2022-10-20T06:50:56;15.50;72.00
45785;DHT22;31489;51.404;5.474;2022-10-20T06:53:22;15.50;72.20
45785;DHT22;31489;51.404;5.474;2022-10-20T06:55:55;15.50;72.00
45785;DHT22;31489;51.404;5.474;2022-10-20T06:58:21;15.60;72.50
45785;DHT22;31489;51.404;5.474;2022-10-20T07:00:56;15.60;72.20
45785;DHT22;31489;51.404;5.474;2022-10-20T07:03:21;15.60;72.20
45785;DHT22;31489;51.404;5.474;2022-10-20T07:05:47;15.60;72.20
45785;DHT22;31489;51.404;5.474;2022-10-20T07:08:13;15.60;72.20
45785;DHT22;31489;51.404;5.474;2022-10-20T07:10:38;15.60;72.30
45785;DHT22;31489;51.404;5.474;2022-10-20T07:13:04;15.60;72.40
45785;DHT22;31489;51.404;5.474;2022-10-20T07:15:29;15.70;72.30
45785;DHT22;31489;51.404;5.474;2022-10-20T07:17:55;15.70;72.30
45785;DHT22;31489;51.404;5.474;2022-10-20T07:20:20;15.70;72.30
45785;DHT22;31489;51.404;5.474;2022-10-20T07:22:46;15.70;72.30
45785;DHT22;31489;51.404;5.474;2022-10-20T07:25:11;15.70;72.30
45785;DHT22;31489;51.404;5.474;2022-10-20T07:27:37;15.70;72.30
45785;DHT22;31489;51.404;5.474;2022-10-20T07:30:03;15.80;72.30
45785;DHT22;31489;51.404;5.474;2022-10-20T07:32:30;15.80;72.30
45785;DHT22;31489;51.404;5.474;2022-10-20T07:34:55;15.80;72.30
45785;DHT22;31489;51.404;5.474;2022-10-20T07:37:21;15.80;72.30
45785;DHT22;31489;51.404;5.474;2022-10-20T07:39:47;15.80;72.30
45785;DHT22;31489;51.404;5.474;2022-10-20T07:42:12;15.90;72.40
45785;DHT22;31489;51.404;5.474;2022-10-20T07:44:38;15.90;72.40
45785;DHT22;31489;51.404;5.474;2022-10-20T07:47:03;15.90;72.50
45785;DHT22;31489;51.404;5.474;2022-10-20T07:49:29;15.90;72.50
45785;DHT22;31489;51.404;5.474;2022-10-20T07:51:54;15.90;72.50
45785;DHT22;31489;51.404;5.474;2022-10-20T07:54:20;15.90;72.40
45785;DHT22;31489;51.404;5.474;2022-10-20T07:56:46;16.00;72.60
45785;DHT22;31489;51.404;5.474;2022-10-20T07:59:12;16.00;72.70
45785;DHT22;31489;51.404;5.474;2022-10-20T08:01:38;16.00;72.80
45785;DHT22;31489;51.404;5.474;2022-10-20T08:04:04;16.10;72.60
45785;DHT22;31489;51.404;5.474;2022-10-20T08:06:30;16.10;72.70
45785;DHT22;31489;51.404;5.474;2022-10-20T08:08:55;16.10;72.70
45785;DHT22;31489;51.404;5.474;2022-10-20T08:11:21;16.20;72.80
45785;DHT22;31489;51.404;5.474;2022-10-20T08:13:47;16.20;72.70
45785;DHT22;31489;51.404;5.474;2022-10-20T08:16:14;16.30;72.70
45785;DHT22;31489;51.404;5.474;2022-10-20T08:18:40;16.30;72.70
45785;DHT22;31489;51.404;5.474;2022-10-20T08:21:24;16.40;72.60
45785;DHT22;31489;51.404;5.474;2022-10-20T08:23:50;16.40;72.50
45785;DHT22;31489;51.404;5.474;2022-10-20T08:26:21;16.40;72.40
45785;DHT22;31489;51.404;5.474;2022-10-20T08:28:48;16.50;72.70
45785;DHT22;31489;51.404;5.474;2022-10-20T08:31:14;16.50;72.60
45785;DHT22;31489;51.404;5.474;2022-10-20T08:33:40;16.50;72.40
45785;DHT22;31489;51.404;5.474;2022-10-20T08:36:08;16.60;72.50
45785;DHT22;31489;51.404;5.474;2022-10-20T08:38:34;16.60;72.70
45785;DHT22;31489;51.404;5.474;2022-10-20T08:41:01;16.70;72.80
45785;DHT22;31489;51.404;5.474;2022-10-20T08:43:29;16.70;72.80
45785;DHT22;31489;51.404;5.474;2022-10-20T08:45:56;16.80;72.90
45785;DHT22;31489;51.404;5.474;2022-10-20T08:48:26;16.80;72.60
45785;DHT22;31489;51.404;5.474;2022-10-20T08:50:54;16.90;72.60
45785;DHT22;31489;51.404;5.474;2022-10-20T08:53:21;17.00;72.50
45785;DHT22;31489;51.404;5.474;2022-10-20T08:55:49;17.10;72.70
45785;DHT22;31489;51.404;5.474;2022-10-20T08:58:18;17.10;72.60
45785;DHT22;31489;51.404;5.474;2022-10-20T09:00:44;17.20;72.30
45785;DHT22;31489;51.404;5.474;2022-10-20T09:03:17;17.20;72.20
45785;DHT22;31489;51.404;5.474;2022-10-20T09:05:46;17.30;72.30
45785;DHT22;31489;51.404;5.474;2022-10-20T09:08:13;17.30;71.90
45785;DHT22;31489;51.404;5.474;2022-10-20T09:10:44;17.30;71.80
45785;DHT22;31489;51.404;5.474;2022-10-20T09:13:19;17.30;71.90
45785;DHT22;31489;51.404;5.474;2022-10-20T09:15:47;17.40;71.90
45785;DHT22;31489;51.404;5.474;2022-10-20T09:18:14;17.40;71.80
45785;DHT22;31489;51.404;5.474;2022-10-20T09:23:40;17.40;71.90
45785;DHT22;31489;51.404;5.474;2022-10-20T09:26:04;17.40;71.60
45785;DHT22;31489;51.404;5.474;2022-10-20T09:28:29;17.40;71.60
45785;DHT22;31489;51.404;5.474;2022-10-20T09:30:56;17.50;71.70
45785;DHT22;31489;51.404;5.474;2022-10-20T09:33:30;17.50;71.50
45785;DHT22;31489;51.404;5.474;2022-10-20T09:36:01;17.50;71.80
45785;DHT22;31489;51.404;5.474;2022-10-20T09:38:27;17.50;71.80
45785;DHT22;31489;51.404;5.474;2022-10-20T09:41:18;17.50;71.70
45785;DHT22;31489;51.404;5.474;2022-10-20T09:43:53;17.60;72.00
45785;DHT22;31489;51.404;5.474;2022-10-20T09:46:25;17.60;71.90
45785;DHT22;31489;51.404;5.474;2022-10-20T09:48:52;17.60;71.70
45785;DHT22;31489;51.404;5.474;2022-10-20T09:51:22;17.60;71.90
45785;DHT22;31489;51.404;5.474;2022-10-20T09:56:28;17.60;72.50
45785;DHT22;31489;51.404;5.474;2022-10-20T09:58:56;17.70;72.40
45785;DHT22;31489;51.404;5.474;2022-10-20T10:01:22;17.70;72.60
45785;DHT22;31489;51.404;5.474;2022-10-20T10:03:58;17.70;72.70
45785;DHT22;31489;51.404;5.474;2022-10-20T10:08:55;17.70;72.80
45785;DHT22;31489;51.404;5.474;2022-10-20T10:11:30;17.70;72.80
45785;DHT22;31489;51.404;5.474;2022-10-20T10:13:56;17.70;73.10
45785;DHT22;31489;51.404;5.474;2022-10-20T10:16:22;17.80;73.30
45785;DHT22;31489;51.404;5.474;2022-10-20T10:19:01;17.80;73.50
45785;DHT22;31489;51.404;5.474;2022-10-20T10:21:42;17.80;74.00
45785;DHT22;31489;51.404;5.474;2022-10-20T10:24:28;17.80;73.90
45785;DHT22;31489;51.404;5.474;2022-10-20T10:26:55;17.80;74.20
45785;DHT22;31489;51.404;5.474;2022-10-20T10:29:28;17.80;73.70
45785;DHT22;31489;51.404;5.474;2022-10-20T10:32:16;17.80;74.30
45785;DHT22;31489;51.404;5.474;2022-10-20T10:34:49;17.80;74.60
45785;DHT22;31489;51.404;5.474;2022-10-20T10:37:21;17.80;74.20
45785;DHT22;31489;51.404;5.474;2022-10-20T10:39:47;17.80;74.30
45785;DHT22;31489;51.404;5.474;2022-10-20T10:50:51;17.80;75.80
45785;DHT22;31489;51.404;5.474;2022-10-20T11:01:58;17.70;75.80
45785;DHT22;31489;51.404;5.474;2022-10-20T11:09:56;17.60;75.80
45785;DHT22;31489;51.404;5.474;2022-10-20T11:18:17;17.60;77.10
45785;DHT22;31489;51.404;5.474;2022-10-20T11:26:32;17.50;77.60
45785;DHT22;31489;51.404;5.474;2022-10-20T11:28:59;17.50;77.20
45785;DHT22;31489;51.404;5.474;2022-10-20T11:31:45;17.50;77.00
45785;DHT22;31489;51.404;5.474;2022-10-20T11:34:26;17.50;77.90
45785;DHT22;31489;51.404;5.474;2022-10-20T11:37:01;17.50;77.90
45785;DHT22;31489;51.404;5.474;2022-10-20T11:39:33;17.50;77.80
45785;DHT22;31489;51.404;5.474;2022-10-20T11:44:46;17.50;78.50
45785;DHT22;31489;51.404;5.474;2022-10-20T11:47:16;17.50;78.20
45785;DHT22;31489;51.404;5.474;2022-10-20T11:49:44;17.50;78.50
45785;DHT22;31489;51.404;5.474;2022-10-20T12:03:22;17.80;79.60
45785;DHT22;31489;51.404;5.474;2022-10-20T12:08:44;18.00;79.70
45785;DHT22;31489;51.404;5.474;2022-10-20T12:14:16;18.10;80.00
45785;DHT22;31489;51.404;5.474;2022-10-20T12:19:21;18.10;79.50
45785;DHT22;31489;51.404;5.474;2022-10-20T12:22:05;18.20;79.00
45785;DHT22;31489;51.404;5.474;2022-10-20T12:27:24;18.20;79.70
45785;DHT22;31489;51.404;5.474;2022-10-20T12:33:18;18.20;79.80
45785;DHT22;31489;51.404;5.474;2022-10-20T12:38:39;18.30;80.10
45785;DHT22;31489;51.404;5.474;2022-10-20T12:41:07;18.30;79.80
45785;DHT22;31489;51.404;5.474;2022-10-20T12:46:20;18.50;82.80
45785;DHT22;31489;51.404;5.474;2022-10-20T12:48:48;18.70;82.90
45785;DHT22;31489;51.404;5.474;2022-10-20T12:51:31;19.00;83.20
45785;DHT22;31489;51.404;5.474;2022-10-20T12:54:18;19.20;83.00
45785;DHT22;31489;51.404;5.474;2022-10-20T12:56:45;19.50;82.80
45785;DHT22;31489;51.404;5.474;2022-10-20T13:10:35;20.80;79.50
45785;DHT22;31489;51.404;5.474;2022-10-20T13:23:30;21.40;78.40
45785;DHT22;31489;51.404;5.474;2022-10-20T13:26:07;21.50;77.40
45785;DHT22;31489;51.404;5.474;2022-10-20T13:28:34;21.60;77.50
45785;DHT22;31489;51.404;5.474;2022-10-20T13:39:07;21.70;76.50
45785;DHT22;31489;51.404;5.474;2022-10-20T13:41:44;21.70;76.50
45785;DHT22;31489;51.404;5.474;2022-10-20T13:50:00;21.90;77.60
45785;DHT22;31489;51.404;5.474;2022-10-20T13:52:32;22.00;77.90
45785;DHT22;31489;51.404;5.474;2022-10-20T13:54:58;22.20;77.50
45785;DHT22;31489;51.404;5.474;2022-10-20T13:57:33;22.40;77.20
45785;DHT22;31489;51.404;5.474;2022-10-20T14:00:03;22.60;76.40
45785;DHT22;31489;51.404;5.474;2022-10-20T14:02:32;22.80;76.30
45785;DHT22;31489;51.404;5.474;2022-10-20T14:05:09;22.90;75.30
45785;DHT22;31489;51.404;5.474;2022-10-20T14:07:40;23.10;75.00
45785;DHT22;31489;51.404;5.474;2022-10-20T14:10:27;23.30;74.70
45785;DHT22;31489;51.404;5.474;2022-10-20T14:12:54;23.40;73.60
45785;DHT22;31489;51.404;5.474;2022-10-20T14:15:34;23.50;73.70
45785;DHT22;31489;51.404;5.474;2022-10-20T14:18:06;23.60;72.60
45785;DHT22;31489;51.404;5.474;2022-10-20T14:20:34;23.60;72.00
45785;DHT22;31489;51.404;5.474;2022-10-20T14:23:02;23.60;71.40
45785;DHT22;31489;51.404;5.474;2022-10-20T14:25:30;23.60;71.00
45785;DHT22;31489;51.404;5.474;2022-10-20T14:27:57;23.50;70.80
45785;DHT22;31489;51.404;5.474;2022-10-20T14:30:26;23.40;70.70
45785;DHT22;31489;51.404;5.474;2022-10-20T14:32:53;23.30;70.80
45785;DHT22;31489;51.404;5.474;2022-10-20T14:35:25;23.20;71.00
45785;DHT22;31489;51.404;5.474;2022-10-20T14:37:59;23.10;70.90
45785;DHT22;31489;51.404;5.474;2022-10-20T14:40:32;23.00;70.80
45785;DHT22;31489;51.404;5.474;2022-10-20T14:43:11;22.90;71.30
45785;DHT22;31489;51.404;5.474;2022-10-20T14:45:37;22.80;72.10
45785;DHT22;31489;51.404;5.474;2022-10-20T14:48:06;22.70;71.50
45785;DHT22;31489;51.404;5.474;2022-10-20T14:50:36;22.60;72.40
45785;DHT22;31489;51.404;5.474;2022-10-20T14:55:54;22.50;72.70
45785;DHT22;31489;51.404;5.474;2022-10-20T15:01:20;22.30;73.20
45785;DHT22;31489;51.404;5.474;2022-10-20T15:04:03;22.30;73.30
45785;DHT22;31489;51.404;5.474;2022-10-20T15:06:29;22.20;73.50
45785;DHT22;31489;51.404;5.474;2022-10-20T15:08:55;22.20;73.40
45785;DHT22;31489;51.404;5.474;2022-10-20T15:11:25;22.20;73.50
45785;DHT22;31489;51.404;5.474;2022-10-20T15:13:54;22.20;73.60
45785;DHT22;31489;51.404;5.474;2022-10-20T15:16:38;22.10;73.70
45785;DHT22;31489;51.404;5.474;2022-10-20T15:19:34;22.00;74.10
45785;DHT22;31489;51.404;5.474;2022-10-20T15:24:31;22.00;74.00
45785;DHT22;31489;51.404;5.474;2022-10-20T15:26:58;21.90;74.00
45785;DHT22;31489;51.404;5.474;2022-10-20T15:29:25;21.90;74.10
45785;DHT22;31489;51.404;5.474;2022-10-20T15:31:51;21.80;73.90
45785;DHT22;31489;51.404;5.474;2022-10-20T15:34:16;21.80;74.20
45785;DHT22;31489;51.404;5.474;2022-10-20T15:36:42;21.80;74.30
45785;DHT22;31489;51.404;5.474;2022-10-20T15:39:08;21.70;74.30
45785;DHT22;31489;51.404;5.474;2022-10-20T15:41:35;21.70;74.60
45785;DHT22;31489;51.404;5.474;2022-10-20T15:44:20;21.70;74.70
45785;DHT22;31489;51.404;5.474;2022-10-20T15:46:47;21.60;75.00
45785;DHT22;31489;51.404;5.474;2022-10-20T15:49:13;21.60;74.90
45785;DHT22;31489;51.404;5.474;2022-10-20T15:51:41;21.60;74.90
45785;DHT22;31489;51.404;5.474;2022-10-20T15:54:14;21.50;74.90
45785;DHT22;31489;51.404;5.474;2022-10-20T15:56:40;21.50;75.10
45785;DHT22;31489;51.404;5.474;2022-10-20T15:59:06;21.50;75.10
45785;DHT22;31489;51.404;5.474;2022-10-20T16:01:32;21.40;75.00
45785;DHT22;31489;51.404;5.474;2022-10-20T16:04:01;21.40;75.10
45785;DHT22;31489;51.404;5.474;2022-10-20T16:06:31;21.40;75.20
45785;DHT22;31489;51.404;5.474;2022-10-20T16:08:57;21.30;75.00
45785;DHT22;31489;51.404;5.474;2022-10-20T16:11:22;21.30;75.00
45785;DHT22;31489;51.404;5.474;2022-10-20T16:13:48;21.30;75.10
45785;DHT22;31489;51.404;5.474;2022-10-20T16:16:18;21.20;75.00
45785;DHT22;31489;51.404;5.474;2022-10-20T16:18:44;21.20;75.30
45785;DHT22;31489;51.404;5.474;2022-10-20T16:21:10;21.20;75.10
45785;DHT22;31489;51.404;5.474;2022-10-20T16:23:39;21.10;75.10
45785;DHT22;31489;51.404;5.474;2022-10-20T16:26:07;21.10;75.30
45785;DHT22;31489;51.404;5.474;2022-10-20T16:28:36;21.00;75.20
45785;DHT22;31489;51.404;5.474;2022-10-20T16:31:04;21.00;75.30
45785;DHT22;31489;51.404;5.474;2022-10-20T16:33:30;20.90;75.10
45785;DHT22;31489;51.404;5.474;2022-10-20T16:35:56;20.90;75.10
45785;DHT22;31489;51.404;5.474;2022-10-20T16:38:22;20.90;75.10
45785;DHT22;31489;51.404;5.474;2022-10-20T16:40:58;20.80;75.10
45785;DHT22;31489;51.404;5.474;2022-10-20T16:43:27;20.80;75.30
45785;DHT22;31489;51.404;5.474;2022-10-20T16:45:53;20.70;74.70
45785;DHT22;31489;51.404;5.474;2022-10-20T16:48:18;20.60;74.80
45785;DHT22;31489;51.404;5.474;2022-10-20T16:50:44;20.60;74.90
45785;DHT22;31489;51.404;5.474;2022-10-20T16:53:10;20.60;74.90
45785;DHT22;31489;51.404;5.474;2022-10-20T16:55:36;20.50;75.00
45785;DHT22;31489;51.404;5.474;2022-10-20T16:58:01;20.50;75.10
45785;DHT22;31489;51.404;5.474;2022-10-20T17:00:27;20.40;75.00
45785;DHT22;31489;51.404;5.474;2022-10-20T17:02:52;20.40;75.10
45785;DHT22;31489;51.404;5.474;2022-10-20T17:05:23;20.40;75.10
45785;DHT22;31489;51.404;5.474;2022-10-20T17:07:52;20.30;75.30
45785;DHT22;31489;51.404;5.474;2022-10-20T17:10:17;20.30;75.20
45785;DHT22;31489;51.404;5.474;2022-10-20T17:12:45;20.30;75.20
45785;DHT22;31489;51.404;5.474;2022-10-20T17:15:12;20.30;75.40
45785;DHT22;31489;51.404;5.474;2022-10-20T17:17:37;20.20;75.30
45785;DHT22;31489;51.404;5.474;2022-10-20T17:20:04;20.20;75.30
45785;DHT22;31489;51.404;5.474;2022-10-20T17:22:30;20.10;75.30
45785;DHT22;31489;51.404;5.474;2022-10-20T17:24:55;20.10;75.30
45785;DHT22;31489;51.404;5.474;2022-10-20T17:27:21;20.10;75.30
45785;DHT22;31489;51.404;5.474;2022-10-20T17:29:47;20.10;75.30
45785;DHT22;31489;51.404;5.474;2022-10-20T17:32:13;20.00;75.20
45785;DHT22;31489;51.404;5.474;2022-10-20T17:34:38;20.00;75.20
45785;DHT22;31489;51.404;5.474;2022-10-20T17:37:10;20.00;75.30
45785;DHT22;31489;51.404;5.474;2022-10-20T17:39:38;20.00;75.30
45785;DHT22;31489;51.404;5.474;2022-10-20T17:42:04;19.90;75.40
45785;DHT22;31489;51.404;5.474;2022-10-20T17:44:34;19.90;75.30
45785;DHT22;31489;51.404;5.474;2022-10-20T17:47:03;19.90;75.40
45785;DHT22;31489;51.404;5.474;2022-10-20T17:49:29;19.90;75.40
45785;DHT22;31489;51.404;5.474;2022-10-20T17:51:54;19.80;75.30
45785;DHT22;31489;51.404;5.474;2022-10-20T17:54:21;19.80;75.40
45785;DHT22;31489;51.404;5.474;2022-10-20T17:56:49;19.80;75.50
45785;DHT22;31489;51.404;5.474;2022-10-20T17:59:17;19.80;75.60
45785;DHT22;31489;51.404;5.474;2022-10-20T18:01:45;19.80;75.60
45785;DHT22;31489;51.404;5.474;2022-10-20T18:04:15;19.70;75.50
45785;DHT22;31489;51.404;5.474;2022-10-20T18:06:42;19.70;75.70
45785;DHT22;31489;51.404;5.474;2022-10-20T18:09:10;19.70;75.70